createdAt,value
2022-11-28T00:01:43.271Z,100766.01
2022-11-28T00:04:10.605Z,100752.74
2022-11-28T00:06:50.063Z,100755.83
2022-11-28T00:09:19.676Z,100768.30
2022-11-28T00:11:48.660Z,100785.52
2022-11-28T00:14:17.765Z,100778.27
2022-11-28T00:16:45.246Z,100766.59
2022-11-28T00:19:13.533Z,100770.02
2022-11-28T00:21:40.905Z,100763.48
2022-11-28T00:24:08.325Z,100759.80
2022-11-28T00:26:37.213Z,100768.29
2022-11-28T00:29:04.847Z,100767.61
2022-11-28T00:31:34.292Z,100760.34
2022-11-28T00:34:04.113Z,100756.20
2022-11-28T00:36:30.859Z,100761.98
2022-11-28T00:38:57.298Z,100753.88
2022-11-28T00:41:26.903Z,100741.42
2022-11-28T00:43:53.363Z,100753.17
2022-11-28T00:46:21.663Z,100772.11
2022-11-28T00:48:48.668Z,100780.92
2022-11-28T00:51:18.881Z,100778.21
2022-11-28T00:53:48.054Z,100773.52
2022-11-28T00:56:16.684Z,100769.65
2022-11-28T00:58:43.927Z,100774.66
2022-11-28T01:01:21.984Z,100756.73
2022-11-28T01:03:50.091Z,100756.77
2022-11-28T01:06:32.352Z,100752.83
2022-11-28T01:09:01.231Z,100733.73
2022-11-28T01:11:28.617Z,100731.23
2022-11-28T01:14:00.531Z,100715.19
2022-11-28T01:16:28.091Z,100702.98
2022-11-28T01:18:54.670Z,100694.16
2022-11-28T01:21:22.140Z,100683.05
2022-11-28T01:23:48.708Z,100676.16
2022-11-28T01:26:19.024Z,100688.35
2022-11-28T01:28:46.105Z,100708.59
2022-11-28T01:31:16.554Z,100698.66
2022-11-28T01:33:43.713Z,100722.16
2022-11-28T01:36:11.725Z,100730.82
2022-11-28T01:38:38.519Z,100726.38
2022-11-28T01:41:05.886Z,100701.23
2022-11-28T01:43:32.444Z,100701.17
2022-11-28T01:45:58.935Z,100702.65
2022-11-28T01:48:38.158Z,100695.10
2022-11-28T01:51:08.972Z,100691.08
2022-11-28T01:53:40.588Z,100684.56
2022-11-28T01:56:18.041Z,100688.88
2022-11-28T01:58:50.081Z,100681.67
2022-11-28T02:01:18.871Z,100659.73
2022-11-28T02:03:48.281Z,100633.31
2022-11-28T02:06:19.396Z,100602.38
2022-11-28T02:08:46.128Z,100595.90
2022-11-28T02:11:28.341Z,100616.73
2022-11-28T02:13:54.683Z,100631.96
2022-11-28T02:16:50.461Z,100643.08
2022-11-28T02:19:42.099Z,100642.06
2022-11-28T02:22:11.602Z,100638.34
2022-11-28T02:25:09.330Z,100636.32
2022-11-28T02:27:41.829Z,100629.73
2022-11-28T02:30:29.540Z,100626.71
2022-11-28T02:33:07.178Z,100612.86
2022-11-28T02:35:43.416Z,100593.02
2022-11-28T02:38:16.978Z,100572.46
2022-11-28T02:40:49.289Z,100573.48
2022-11-28T02:43:42.070Z,100570.90
2022-11-28T02:46:14.698Z,100583.45
2022-11-28T02:49:01.698Z,100593.70
2022-11-28T02:51:38.617Z,100591.60
2022-11-28T02:54:09.279Z,100615.80
2022-11-28T02:56:35.807Z,100624.66
2022-11-28T02:59:02.324Z,100623.92
2022-11-28T03:01:38.673Z,100617.33
2022-11-28T03:04:34.360Z,100617.53
2022-11-28T03:07:13.363Z,100607.23
2022-11-28T03:09:56.108Z,100602.31
2022-11-28T03:12:38.124Z,100592.02
2022-11-28T03:15:11.924Z,100601.34
2022-11-28T03:18:05.969Z,100597.58
2022-11-28T03:20:46.018Z,100585.27
2022-11-28T03:23:17.252Z,100584.33
2022-11-28T03:26:04.743Z,100588.94
2022-11-28T03:28:44.208Z,100587.72
2022-11-28T03:31:15.305Z,100586.17
2022-11-28T03:33:49.337Z,100571.30
2022-11-28T03:36:20.880Z,100571.61
2022-11-28T03:38:50.713Z,100573.98
2022-11-28T03:41:25.072Z,100578.10
2022-11-28T03:43:57.054Z,100576.09
2022-11-28T03:46:31.501Z,100571.07
2022-11-28T03:49:00.419Z,100575.67
2022-11-28T03:51:43.011Z,100578.05
2022-11-28T03:54:53.699Z,100580.61
2022-11-28T03:57:33.395Z,100576.34
2022-11-28T04:00:04.715Z,100572.79
2022-11-28T04:02:53.063Z,100568.22
2022-11-28T04:05:57.930Z,100563.41
2022-11-28T04:08:45.854Z,100563.73
2022-11-28T04:11:21.054Z,100564.02
2022-11-28T04:13:57.685Z,100560.31
2022-11-28T04:16:40.962Z,100554.68
2022-11-28T04:19:13.558Z,100552.05
2022-11-28T04:22:03.281Z,100554.05
2022-11-28T04:24:37.008Z,100554.54
2022-11-28T04:27:10.185Z,100550.52
2022-11-28T04:29:41.915Z,100552.62
2022-11-28T04:32:11.177Z,100552.27
2022-11-28T04:34:40.438Z,100551.57
2022-11-28T04:37:10.014Z,100550.34
2022-11-28T04:39:38.239Z,100545.67
2022-11-28T04:42:16.253Z,100542.63
2022-11-28T04:44:55.142Z,100538.24
2022-11-28T04:47:22.848Z,100535.80
2022-11-28T04:49:49.724Z,100528.88
2022-11-28T04:52:35.359Z,100528.61
2022-11-28T04:55:15.181Z,100523.44
2022-11-28T04:57:54.206Z,100514.76
2022-11-28T05:00:23.465Z,100513.83
2022-11-28T05:02:53.618Z,100517.88
2022-11-28T05:05:23.745Z,100522.75
2022-11-28T05:07:50.306Z,100522.94
2022-11-28T05:10:17.649Z,100524.31
2022-11-28T05:12:44.146Z,100525.50
2022-11-28T05:15:11.239Z,100521.50
2022-11-28T05:17:42.187Z,100523.42
2022-11-28T05:20:09.523Z,100522.11
2022-11-28T05:22:36.065Z,100515.94
2022-11-28T05:25:02.430Z,100508.98
2022-11-28T05:27:29.248Z,100510.25
2022-11-28T05:29:55.731Z,100511.40
2022-11-28T05:32:22.298Z,100513.50
2022-11-28T05:34:48.730Z,100515.98
2022-11-28T05:37:16.159Z,100517.92
2022-11-28T05:39:42.915Z,100522.48
2022-11-28T05:42:09.533Z,100524.22
2022-11-28T05:44:37.180Z,100526.92
2022-11-28T05:47:03.612Z,100527.48
2022-11-28T05:49:29.997Z,100525.05
2022-11-28T05:51:56.379Z,100522.61
2022-11-28T05:54:22.797Z,100525.38
2022-11-28T05:56:49.218Z,100520.11
2022-11-28T05:59:15.732Z,100518.57
2022-11-28T06:01:42.411Z,100516.67
2022-11-28T06:04:08.895Z,100512.08
2022-11-28T06:06:36.062Z,100505.65
2022-11-28T06:09:04.176Z,100501.54
2022-11-28T06:11:31.929Z,100498.98
2022-11-28T06:13:58.337Z,100502.16
2022-11-28T06:16:27.066Z,100504.41
2022-11-28T06:18:57.808Z,100509.92
2022-11-28T06:21:25.179Z,100510.40
2022-11-28T06:23:52.067Z,100506.31
2022-11-28T06:26:21.974Z,100508.48
2022-11-28T06:28:48.918Z,100504.44
2022-11-28T06:31:31.037Z,100506.15
2022-11-28T06:33:58.417Z,100500.21
2022-11-28T06:36:26.208Z,100500.15
2022-11-28T06:38:53.161Z,100499.65
2022-11-28T06:41:20.780Z,100495.52
2022-11-28T06:43:47.247Z,100500.13
2022-11-28T06:46:19.901Z,100501.91
2022-11-28T06:48:47.969Z,100502.52
2022-11-28T06:51:15.230Z,100508.27
2022-11-28T06:53:42.085Z,100507.39
2022-11-28T06:56:11.316Z,100510.36
2022-11-28T06:58:37.961Z,100521.05
2022-11-28T07:01:08.513Z,100526.19
2022-11-28T07:03:34.993Z,100530.69
2022-11-28T07:06:03.255Z,100530.13
2022-11-28T07:08:30.881Z,100534.88
2022-11-28T07:10:57.789Z,100533.16
2022-11-28T07:13:24.781Z,100539.43
2022-11-28T07:15:51.762Z,100542.09
2022-11-28T07:18:18.267Z,100543.02
2022-11-28T07:20:44.687Z,100541.93
2022-11-28T07:23:11.156Z,100540.59
2022-11-28T07:25:37.545Z,100546.31
2022-11-28T07:28:04.089Z,100546.86
2022-11-28T07:30:30.492Z,100545.91
2022-11-28T07:32:56.843Z,100548.45
2022-11-28T07:35:23.264Z,100540.34
2022-11-28T07:37:49.642Z,100539.53
2022-11-28T07:40:18.464Z,100539.36
2022-11-28T07:42:45.058Z,100538.90
2022-11-28T07:45:11.996Z,100539.36
2022-11-28T07:47:38.386Z,100542.33
2022-11-28T07:50:05.576Z,100542.52
2022-11-28T07:52:31.960Z,100542.19
2022-11-28T07:54:58.347Z,100541.13
2022-11-28T07:57:24.772Z,100547.23
2022-11-28T07:59:51.135Z,100550.42
2022-11-28T08:02:17.619Z,100557.71
2022-11-28T08:04:49.361Z,100557.05
2022-11-28T08:07:17.009Z,100553.86
2022-11-28T08:09:43.687Z,100550.14
2022-11-28T08:12:10.267Z,100550.27
2022-11-28T08:14:36.657Z,100547.31
2022-11-28T08:17:03.152Z,100540.46
2022-11-28T08:19:33.802Z,100539.42
2022-11-28T08:22:01.695Z,100538.95
2022-11-28T08:24:28.113Z,100536.91
2022-11-28T08:26:54.502Z,100531.04
2022-11-28T08:29:20.958Z,100534.64
2022-11-28T08:31:47.671Z,100531.55
2022-11-28T08:34:14.364Z,100536.48
2022-11-28T08:36:41.513Z,100538.77
2022-11-28T08:39:24.897Z,100540.33
2022-11-28T08:41:52.448Z,100545.09
2022-11-28T08:44:18.887Z,100543.92
2022-11-28T08:46:45.274Z,100542.81
2022-11-28T08:49:11.657Z,100543.30
2022-11-28T08:51:38.079Z,100543.23
2022-11-28T08:54:04.914Z,100543.48
2022-11-28T08:56:31.337Z,100540.04
2022-11-28T08:58:57.819Z,100541.06
2022-11-28T09:01:26.118Z,100538.77
2022-11-28T09:03:54.060Z,100543.04
2022-11-28T09:06:21.436Z,100549.36
2022-11-28T09:08:49.274Z,100546.14
2022-11-28T09:11:19.034Z,100549.98
2022-11-28T09:13:46.327Z,100550.40
2022-11-28T09:16:14.374Z,100554.13
2022-11-28T09:18:40.888Z,100556.85
2022-11-28T09:21:11.843Z,100555.02
2022-11-28T09:23:40.837Z,100554.20
2022-11-28T09:26:15.390Z,100558.61
2022-11-28T09:28:42.432Z,100558.98
2022-11-28T09:31:09.410Z,100554.92
2022-11-28T09:33:35.951Z,100553.61
2022-11-28T09:36:06.778Z,100556.60
2022-11-28T09:38:33.315Z,100558.08
2022-11-28T09:41:01.491Z,100556.55
2022-11-28T09:43:42.916Z,100554.64
2022-11-28T09:46:15.136Z,100555.70
2022-11-28T09:48:45.949Z,100558.99
2022-11-28T09:51:28.210Z,100557.02
2022-11-28T09:54:13.405Z,100555.62
2022-11-28T09:56:39.921Z,100555.80
2022-11-28T09:59:20.407Z,100554.58
2022-11-28T10:01:56.869Z,100552.68
2022-11-28T10:04:38.755Z,100547.91
2022-11-28T10:07:52.250Z,100548.42
2022-11-28T10:10:52.604Z,100547.52
2022-11-28T10:16:54.409Z,100547.25
2022-11-28T10:19:53.384Z,100546.98
2022-11-28T10:22:40.470Z,100545.13
2022-11-28T10:25:35.039Z,100540.20
2022-11-28T10:28:04.869Z,100537.44
2022-11-28T10:30:37.750Z,100538.80
2022-11-28T10:33:13.566Z,100539.73
2022-11-28T10:35:56.322Z,100537.88
2022-11-28T10:38:28.564Z,100530.77
2022-11-28T10:41:12.265Z,100530.92
2022-11-28T10:43:57.470Z,100532.16
2022-11-28T10:46:36.228Z,100527.33
2022-11-28T10:49:14.760Z,100528.61
2022-11-28T10:52:14.144Z,100526.88
2022-11-28T10:54:59.879Z,100521.03
2022-11-28T10:57:56.214Z,100521.04
2022-11-28T11:00:22.808Z,100519.16
2022-11-28T11:02:51.835Z,100522.98
2022-11-28T11:05:25.752Z,100525.28
2022-11-28T11:08:09.013Z,100523.01
2022-11-28T11:10:41.807Z,100518.62
2022-11-28T11:13:27.818Z,100519.54
2022-11-28T11:16:07.315Z,100519.58
2022-11-28T11:18:37.473Z,100525.40
2022-11-28T11:21:15.184Z,100521.77
2022-11-28T11:23:42.258Z,100525.25
2022-11-28T11:26:25.270Z,100517.72
2022-11-28T11:28:52.448Z,100517.83
2022-11-28T11:31:26.926Z,100508.63
2022-11-28T11:34:06.139Z,100511.31
2022-11-28T11:36:35.642Z,100509.24
2022-11-28T11:39:19.956Z,100508.41
2022-11-28T11:42:09.046Z,100504.55
2022-11-28T11:44:35.691Z,100509.85
2022-11-28T11:47:05.740Z,100507.30
2022-11-28T11:49:35.546Z,100511.74
2022-11-28T11:52:05.059Z,100509.12
2022-11-28T11:54:31.535Z,100506.86
2022-11-28T11:57:24.906Z,100506.02
2022-11-28T11:59:51.420Z,100500.33
2022-11-28T12:02:30.102Z,100501.11
2022-11-28T12:05:03.327Z,100497.98
2022-11-28T12:07:37.828Z,100497.36
2022-11-28T12:10:07.629Z,100496.98
2022-11-28T12:12:36.881Z,100493.16
2022-11-28T12:15:03.497Z,100495.60
2022-11-28T12:17:59.019Z,100497.96
2022-11-28T12:20:36.776Z,100497.44
2022-11-28T12:23:21.401Z,100495.77
2022-11-28T12:25:55.973Z,100498.88
2022-11-28T12:28:52.529Z,100500.83
2022-11-28T12:31:37.330Z,100497.89
2022-11-28T12:34:28.145Z,100499.69
2022-11-28T12:37:54.755Z,100492.13
2022-11-28T12:40:48.708Z,100489.02
2022-11-28T12:43:18.155Z,100494.52
2022-11-28T12:45:58.440Z,100495.52
2022-11-28T12:49:10.729Z,100492.51
2022-11-28T12:51:46.521Z,100491.00
2022-11-28T12:54:40.869Z,100489.45
2022-11-28T12:57:15.869Z,100491.90
2022-11-28T12:59:42.899Z,100492.92
2022-11-28T13:02:31.401Z,100492.30
2022-11-28T13:05:12.874Z,100496.23
2022-11-28T13:07:56.689Z,100496.98
2022-11-28T13:10:34.672Z,100492.48
2022-11-28T13:13:07.839Z,100488.81
2022-11-28T13:16:07.341Z,100487.23
2022-11-28T13:18:41.504Z,100493.10
2022-11-28T13:21:19.954Z,100490.37
2022-11-28T13:23:59.826Z,100494.38
2022-11-28T13:27:04.292Z,100494.52
2022-11-28T13:29:49.609Z,100494.11
2022-11-28T13:32:26.450Z,100491.59
2022-11-28T13:34:53.597Z,100496.77
2022-11-28T13:40:57.294Z,100494.34
2022-11-28T13:43:30.411Z,100492.85
2022-11-28T13:45:56.792Z,100492.77
2022-11-28T13:51:31.112Z,100497.77
2022-11-28T13:54:17.481Z,100497.55
2022-11-28T13:57:05.468Z,100496.39
2022-11-28T13:59:33.275Z,100495.34
2022-11-28T14:02:03.240Z,100495.90
2022-11-28T14:04:31.395Z,100505.02
2022-11-28T14:07:07.619Z,100504.98
2022-11-28T14:09:59.065Z,100505.01
2022-11-28T14:12:56.701Z,100510.43
2022-11-28T14:15:51.611Z,100504.10
2022-11-28T14:18:57.312Z,100510.67
2022-11-28T14:21:31.371Z,100517.48
2022-11-28T14:24:49.929Z,100520.06
2022-11-28T14:27:24.770Z,100522.48
2022-11-28T14:29:54.607Z,100520.40
2022-11-28T14:32:40.333Z,100520.40
2022-11-28T14:35:17.233Z,100521.61
2022-11-28T14:37:49.910Z,100519.70
2022-11-28T14:40:53.989Z,100519.98
2022-11-28T14:43:23.433Z,100522.38
2022-11-28T14:45:50.980Z,100521.83
2022-11-28T14:48:28.298Z,100523.08
2022-11-28T14:51:00.878Z,100523.23
2022-11-28T14:53:34.148Z,100525.27
2022-11-28T14:56:30.304Z,100525.16
2022-11-28T14:59:00.879Z,100526.98
2022-11-28T15:01:39.681Z,100528.84
2022-11-28T15:04:43.693Z,100531.27
2022-11-28T15:07:26.978Z,100528.16
2022-11-28T15:10:10.959Z,100528.51
2022-11-28T15:12:56.302Z,100531.52
2022-11-28T15:15:23.279Z,100528.40
2022-11-28T15:17:53.146Z,100528.83
2022-11-28T15:20:47.548Z,100527.05
2022-11-28T15:23:25.689Z,100533.66
2022-11-28T15:25:55.028Z,100532.09
2022-11-28T15:28:25.301Z,100528.36
2022-11-28T15:30:53.250Z,100529.69
2022-11-28T15:33:21.122Z,100531.71
2022-11-28T15:36:00.996Z,100531.29
2022-11-28T15:38:29.648Z,100526.58
2022-11-28T15:40:57.122Z,100525.45
2022-11-28T15:43:24.720Z,100535.80
2022-11-28T15:45:58.705Z,100539.03
2022-11-28T15:48:28.114Z,100534.58
2022-11-28T15:50:55.476Z,100530.05
2022-11-28T15:53:22.694Z,100527.07
2022-11-28T15:56:16.086Z,100525.63
2022-11-28T15:58:44.076Z,100526.82
2022-11-28T16:01:16.656Z,100525.83
2022-11-28T16:04:17.153Z,100529.32
2022-11-28T16:06:50.265Z,100532.30
2022-11-28T16:09:19.886Z,100534.52
2022-11-28T16:11:49.696Z,100526.80
2022-11-28T16:14:21.910Z,100528.48
2022-11-28T16:16:48.631Z,100525.21
2022-11-28T16:19:31.167Z,100528.27
2022-11-28T16:22:10.826Z,100529.34
2022-11-28T16:24:52.302Z,100527.43
2022-11-28T16:27:34.773Z,100524.30
2022-11-28T16:30:04.413Z,100522.66
2022-11-28T16:32:39.668Z,100522.27
2022-11-28T16:35:12.245Z,100525.69
2022-11-28T16:37:39.392Z,100528.55
2022-11-28T16:40:24.233Z,100527.77
2022-11-28T16:42:55.289Z,100529.45
2022-11-28T16:45:26.614Z,100530.75
2022-11-28T16:48:13.907Z,100535.60
2022-11-28T16:50:59.029Z,100534.81
2022-11-28T16:53:53.329Z,100534.30
2022-11-28T16:56:27.070Z,100535.23
2022-11-28T16:59:19.542Z,100535.23
2022-11-28T17:01:48.444Z,100538.29
2022-11-28T17:04:41.350Z,100543.12
2022-11-28T17:07:11.452Z,100544.88
2022-11-28T17:09:37.953Z,100545.48
2022-11-28T17:12:06.497Z,100545.55
2022-11-28T17:14:33.831Z,100546.25
2022-11-28T17:17:03.511Z,100547.73
2022-11-28T17:19:30.002Z,100541.98
2022-11-28T17:21:59.482Z,100542.02
2022-11-28T17:24:35.855Z,100541.98
2022-11-28T17:27:03.607Z,100545.95
2022-11-28T17:29:30.322Z,100547.90
2022-11-28T17:31:58.860Z,100551.46
2022-11-28T17:34:28.540Z,100553.63
2022-11-28T17:36:55.075Z,100560.09
2022-11-28T17:39:21.663Z,100564.59
2022-11-28T17:41:48.856Z,100566.07
2022-11-28T17:44:20.176Z,100568.26
2022-11-28T17:46:47.276Z,100567.96
2022-11-28T17:49:13.994Z,100570.90
2022-11-28T17:51:40.839Z,100570.02
2022-11-28T17:54:07.649Z,100574.42
2022-11-28T17:56:34.034Z,100572.38
2022-11-28T17:59:00.502Z,100570.73
2022-11-28T18:01:29.791Z,100573.52
2022-11-28T18:03:56.306Z,100571.83
2022-11-28T18:06:23.037Z,100571.22
2022-11-28T18:08:50.603Z,100572.45
2022-11-28T18:11:18.923Z,100578.42
2022-11-28T18:13:45.773Z,100579.81
2022-11-28T18:16:14.337Z,100580.67
2022-11-28T18:18:40.882Z,100584.20
2022-11-28T18:21:09.043Z,100584.45
2022-11-28T18:23:43.703Z,100578.89
2022-11-28T18:26:13.388Z,100583.69
2022-11-28T18:28:40.004Z,100583.59
2022-11-28T18:31:11.485Z,100585.75
2022-11-28T18:33:39.398Z,100584.11
2022-11-28T18:36:21.044Z,100588.02
2022-11-28T18:38:47.837Z,100591.34
2022-11-28T18:41:16.928Z,100589.31
2022-11-28T18:43:44.093Z,100593.52
2022-11-28T18:46:13.074Z,100597.28
2022-11-28T18:48:41.993Z,100594.53
2022-11-28T18:51:11.526Z,100598.13
2022-11-28T18:53:39.210Z,100601.73
2022-11-28T18:56:06.206Z,100601.56
2022-11-28T18:58:37.824Z,100605.39
2022-11-28T19:01:13.110Z,100610.79
2022-11-28T19:03:40.730Z,100607.63
2022-11-28T19:06:12.159Z,100611.69
2022-11-28T19:08:39.407Z,100608.04
2022-11-28T19:11:09.747Z,100608.73
2022-11-28T19:13:40.661Z,100606.05
2022-11-28T19:16:13.181Z,100605.61
2022-11-28T19:18:40.406Z,100603.48
2022-11-28T19:21:08.894Z,100605.20
2022-11-28T19:23:35.656Z,100605.17
2022-11-28T19:26:04.117Z,100606.94
2022-11-28T19:28:30.762Z,100606.80
2022-11-28T19:31:08.264Z,100605.22
2022-11-28T19:33:34.973Z,100604.86
2022-11-28T19:36:06.574Z,100604.70
2022-11-28T19:38:33.993Z,100603.91
2022-11-28T19:41:13.112Z,100605.05
2022-11-28T19:43:40.140Z,100606.59
2022-11-28T19:46:07.641Z,100609.58
2022-11-28T19:48:36.061Z,100608.66
2022-11-28T19:51:03.831Z,100607.09
2022-11-28T19:53:31.440Z,100606.17
2022-11-28T19:56:06.855Z,100608.11
2022-11-28T19:58:35.431Z,100611.88
2022-11-28T20:01:07.268Z,100612.38
2022-11-28T20:03:35.465Z,100615.09
2022-11-28T20:06:01.980Z,100616.21
2022-11-28T20:08:28.888Z,100619.67
2022-11-28T20:10:55.315Z,100622.42
2022-11-28T20:13:21.780Z,100626.02
2022-11-28T20:15:48.204Z,100627.45
2022-11-28T20:18:14.591Z,100632.66
2022-11-28T20:20:41.016Z,100633.03
2022-11-28T20:23:07.423Z,100632.73
2022-11-28T20:25:33.870Z,100636.00
2022-11-28T20:28:00.325Z,100635.09
2022-11-28T20:30:26.717Z,100635.02
2022-11-28T20:32:53.676Z,100634.77
2022-11-28T20:35:20.201Z,100636.06
2022-11-28T20:37:46.732Z,100636.31
2022-11-28T20:40:13.583Z,100638.09
2022-11-28T20:42:40.297Z,100636.77
2022-11-28T20:45:07.364Z,100635.89
2022-11-28T20:47:34.947Z,100637.30
2022-11-28T20:50:01.585Z,100635.71
2022-11-28T20:52:28.035Z,100637.65
2022-11-28T20:54:54.508Z,100637.25
2022-11-28T20:57:22.276Z,100636.24
2022-11-28T20:59:49.178Z,100637.80
2022-11-28T21:02:15.731Z,100636.96
2022-11-28T21:04:42.253Z,100634.27
2022-11-28T21:07:08.810Z,100635.11
2022-11-28T21:09:35.208Z,100638.54
2022-11-28T21:12:01.617Z,100639.51
2022-11-28T21:14:28.997Z,100639.78
2022-11-28T21:16:58.824Z,100639.34
2022-11-28T21:19:25.888Z,100639.50
2022-11-28T21:21:52.674Z,100640.70
2022-11-28T21:24:19.188Z,100643.48
2022-11-28T21:26:52.637Z,100643.48
2022-11-28T21:29:20.440Z,100643.55
2022-11-28T21:31:47.254Z,100642.84
2022-11-28T21:34:14.820Z,100639.95
2022-11-28T21:36:42.185Z,100640.88
2022-11-28T21:39:13.309Z,100642.53
2022-11-28T21:41:39.820Z,100644.40
2022-11-28T21:44:06.325Z,100639.05
2022-11-28T21:46:32.722Z,100637.43
2022-11-28T21:48:59.224Z,100638.44
2022-11-28T21:51:26.035Z,100641.20
2022-11-28T21:53:52.591Z,100640.23
2022-11-28T21:56:19.349Z,100638.59
2022-11-28T21:58:45.933Z,100641.34
2022-11-28T22:01:14.164Z,100636.23
2022-11-28T22:03:41.630Z,100640.41
2022-11-28T22:06:14.109Z,100642.19
2022-11-28T22:08:40.572Z,100642.16
2022-11-28T22:11:12.873Z,100643.63
2022-11-28T22:13:42.206Z,100646.66
2022-11-28T22:16:14.639Z,100651.52
2022-11-28T22:18:41.143Z,100654.25
2022-11-28T22:21:28.597Z,100658.42
2022-11-28T22:23:56.377Z,100661.69
2022-11-28T22:26:22.891Z,100660.44
2022-11-28T22:28:53.539Z,100661.16
2022-11-28T22:31:21.079Z,100660.91
2022-11-28T22:33:49.441Z,100663.52
2022-11-28T22:36:18.558Z,100665.37
2022-11-28T22:38:46.316Z,100665.88
2022-11-28T22:41:28.233Z,100666.25
2022-11-28T22:43:56.676Z,100667.28
2022-11-28T22:46:23.483Z,100671.05
2022-11-28T22:48:51.748Z,100672.00
2022-11-28T22:51:21.783Z,100671.64
2022-11-28T22:53:48.199Z,100665.95
2022-11-28T22:56:15.611Z,100667.04
2022-11-28T22:58:44.012Z,100667.00
2022-11-28T23:01:17.394Z,100664.95
2022-11-28T23:03:45.309Z,100665.88
2022-11-28T23:06:14.998Z,100669.55
2022-11-28T23:08:41.753Z,100671.71
2022-11-28T23:11:11.328Z,100671.53
2022-11-28T23:13:39.951Z,100675.10
2022-11-28T23:16:16.064Z,100675.38
2022-11-28T23:18:44.072Z,100677.23
2022-11-28T23:21:11.634Z,100676.10
2022-11-28T23:23:38.814Z,100675.40
2022-11-28T23:26:11.323Z,100675.90
2022-11-28T23:28:38.645Z,100676.98
2022-11-28T23:31:07.199Z,100677.31
2022-11-28T23:33:34.438Z,100676.27
2022-11-28T23:36:01.089Z,100677.39
2022-11-28T23:38:27.537Z,100681.86
2022-11-28T23:40:57.055Z,100677.70
2022-11-28T23:43:23.518Z,100676.88
2022-11-28T23:45:50.165Z,100677.59
2022-11-28T23:48:16.695Z,100679.85
2022-11-28T23:50:43.328Z,100682.76
2022-11-28T23:53:09.720Z,100682.55
2022-11-28T23:55:36.125Z,100683.23
2022-11-28T23:58:02.493Z,100684.76
